createdAt,value
2018-06-13T00:00:01.029Z,9.0
2018-06-13T00:05:00.790Z,8.6
2018-06-13T00:10:00.956Z,8.4
2018-06-13T00:15:00.829Z,8.4
2018-06-13T00:20:00.926Z,8.2
2018-06-13T00:30:00.920Z,8.4
2018-06-13T00:35:00.870Z,7.4
2018-06-13T00:40:01.004Z,7.5
2018-06-13T00:45:00.869Z,7.2
2018-06-13T00:50:00.939Z,7.0
2018-06-13T00:55:00.881Z,6.6
2018-06-13T01:00:00.999Z,7.2
2018-06-13T01:10:00.983Z,7.8
2018-06-13T01:15:00.878Z,7.3
2018-06-13T01:20:00.909Z,7.6
2018-06-13T01:25:01.099Z,6.7
2018-06-13T01:30:00.956Z,7.0
2018-06-13T01:35:02.165Z,6.4
2018-06-13T01:40:00.989Z,6.7
2018-06-13T01:45:00.860Z,6.7
2018-06-13T01:55:01.053Z,6.2
2018-06-13T02:00:00.897Z,5.7
2018-06-13T02:05:00.863Z,5.3
2018-06-13T02:10:00.937Z,4.9
2018-06-13T02:15:00.860Z,5.1
2018-06-13T02:25:01.025Z,5.3
2018-06-13T02:30:00.985Z,5.4
2018-06-13T02:35:01.147Z,5.2
2018-06-13T02:45:00.975Z,5.2
2018-06-13T02:50:00.948Z,5.5
2018-06-13T02:55:00.912Z,6.3
2018-06-13T03:00:01.019Z,6.2
2018-06-13T03:05:00.885Z,6.7
2018-06-13T03:10:01.049Z,6.5
2018-06-13T03:15:00.877Z,6.8
2018-06-13T03:20:01.005Z,6.2
2018-06-13T03:25:00.929Z,6.3
2018-06-13T03:30:01.030Z,6.2
2018-06-13T03:35:05.901Z,6.7
2018-06-13T03:40:00.964Z,6.0
2018-06-13T03:45:00.907Z,5.8
2018-06-13T03:50:01.034Z,5.3
2018-06-13T03:55:01.226Z,5.0
2018-06-13T04:00:00.976Z,4.7
2018-06-13T04:05:00.923Z,4.6
2018-06-13T04:10:01.090Z,4.8
2018-06-13T04:15:00.945Z,5.4
2018-06-13T04:20:01.021Z,5.2
2018-06-13T04:25:00.926Z,5.0
2018-06-13T04:30:00.993Z,4.8
2018-06-13T04:35:00.931Z,4.4
2018-06-13T04:40:00.990Z,4.2
2018-06-13T04:45:00.933Z,4.3
2018-06-13T04:50:01.058Z,4.7
2018-06-13T04:55:00.950Z,5.7
2018-06-13T05:00:01.009Z,6.2
2018-06-13T05:05:00.942Z,7.1
2018-06-13T05:10:00.937Z,7.0
2018-06-13T05:15:00.949Z,6.6
2018-06-13T05:20:01.038Z,6.0
2018-06-13T05:25:01.296Z,5.7
2018-06-13T05:30:01.042Z,4.7
2018-06-13T05:35:00.987Z,5.1
2018-06-13T05:40:06.048Z,5.7
2018-06-13T05:45:05.965Z,5.6
2018-06-13T05:55:06.030Z,5.3
2018-06-13T06:00:01.060Z,4.8
2018-06-13T06:05:00.988Z,4.3
2018-06-13T06:10:01.093Z,4.0
2018-06-13T06:15:05.950Z,3.8
2018-06-13T06:20:01.061Z,3.9
2018-06-13T06:25:01.000Z,4.0
2018-06-13T06:30:01.083Z,4.4
2018-06-13T06:35:00.983Z,4.5
2018-06-13T06:40:01.068Z,4.6
2018-06-13T06:45:05.983Z,4.6
2018-06-13T06:50:01.200Z,4.3
2018-06-13T06:55:01.010Z,4.1
2018-06-13T07:00:01.080Z,4.0
2018-06-13T07:05:01.017Z,4.2
2018-06-13T07:10:01.149Z,4.3
2018-06-13T07:15:01.061Z,4.4
2018-06-13T07:20:06.224Z,4.2
2018-06-13T07:30:01.068Z,4.1
2018-06-13T07:35:01.001Z,4.0
2018-06-13T07:45:06.133Z,4.2
2018-06-13T07:50:01.183Z,4.4
2018-06-13T07:55:01.035Z,4.7
2018-06-13T08:00:01.165Z,4.8
2018-06-13T08:05:01.037Z,5.0
2018-06-13T08:10:01.129Z,4.8
2018-06-13T08:15:01.036Z,4.6
2018-06-13T08:20:01.181Z,4.2
2018-06-13T08:25:01.046Z,4.4
2018-06-13T08:30:01.177Z,4.0
2018-06-13T08:35:01.063Z,4.2
2018-06-13T08:40:01.127Z,4.4
2018-06-13T08:45:01.066Z,4.4
2018-06-13T09:00:01.801Z,4.4
2018-06-13T09:10:01.138Z,4.5
2018-06-13T09:15:01.131Z,4.7
2018-06-13T09:20:06.202Z,5.7
2018-06-13T09:25:01.038Z,6.0
2018-06-13T09:30:06.170Z,5.7
2018-06-13T09:40:01.108Z,5.4
2018-06-13T09:45:01.042Z,4.6
2018-06-13T09:50:01.100Z,4.2
2018-06-13T09:55:01.047Z,4.0
2018-06-13T10:00:01.047Z,4.0
2018-06-13T10:05:01.055Z,3.9
2018-06-13T10:10:01.173Z,3.8
2018-06-13T10:15:01.319Z,3.7
2018-06-13T10:20:01.139Z,4.2
2018-06-13T10:25:01.250Z,4.4
2018-06-13T10:30:06.196Z,4.4
2018-06-13T10:35:01.139Z,4.5
2018-06-13T10:40:01.170Z,4.4
2018-06-13T10:45:01.352Z,4.5
2018-06-13T10:50:01.074Z,5.2
2018-06-13T11:00:01.240Z,5.5
2018-06-13T11:10:01.111Z,5.4
2018-06-13T11:15:01.171Z,4.8
2018-06-13T11:25:01.180Z,4.7
2018-06-13T11:30:01.150Z,4.9
2018-06-13T11:35:01.127Z,5.1
2018-06-13T11:40:01.219Z,5.3
2018-06-13T11:45:01.132Z,5.8
2018-06-13T11:55:01.296Z,6.0
2018-06-13T12:00:01.236Z,5.6
2018-06-13T12:05:06.106Z,5.8
2018-06-13T12:10:01.185Z,5.4
2018-06-13T12:15:01.132Z,5.7
2018-06-13T12:20:01.645Z,6.0
2018-06-13T12:25:01.173Z,6.3
2018-06-13T12:30:01.182Z,6.3
2018-06-13T12:35:06.112Z,6.8
2018-06-13T12:40:01.179Z,6.4
2018-06-13T12:45:01.109Z,5.9
2018-06-13T12:50:01.240Z,5.8
2018-06-13T12:55:06.182Z,5.6
2018-06-13T13:00:01.276Z,5.4
2018-06-13T13:05:01.162Z,5.5
2018-06-13T13:10:01.278Z,5.6
2018-06-13T13:15:01.153Z,5.6
2018-06-13T13:20:01.289Z,5.9
2018-06-13T13:25:01.164Z,5.8
2018-06-13T13:30:01.219Z,5.8
2018-06-13T13:35:06.135Z,5.9
2018-06-13T13:40:01.460Z,6.0
2018-06-13T13:45:01.142Z,5.9
2018-06-13T13:50:01.252Z,6.2
2018-06-13T13:55:01.139Z,6.5
2018-06-13T14:00:01.225Z,6.8
2018-06-13T14:05:01.182Z,6.7
2018-06-13T14:15:01.317Z,6.1
2018-06-13T14:20:01.735Z,5.8
2018-06-13T14:25:01.233Z,5.6
2018-06-13T14:30:06.226Z,5.6
2018-06-13T14:35:01.220Z,5.4
2018-06-13T14:45:01.290Z,5.3
2018-06-13T14:50:01.359Z,5.0
2018-06-13T15:00:01.245Z,5.0
2018-06-13T15:15:01.241Z,5.4
2018-06-13T15:20:01.554Z,5.3
2018-06-13T15:30:01.409Z,5.5
2018-06-13T15:40:01.251Z,5.6
2018-06-13T15:45:01.481Z,5.6
2018-06-13T15:55:01.386Z,5.7
2018-06-13T16:00:02.609Z,6.1
2018-06-13T16:05:01.234Z,5.8
2018-06-13T16:10:01.447Z,6.2
2018-06-13T16:15:01.231Z,6.4
2018-06-13T16:20:01.403Z,6.1
2018-06-13T16:25:01.236Z,5.8
2018-06-13T16:30:01.340Z,6.0
2018-06-13T16:35:01.239Z,5.4
2018-06-13T16:45:01.287Z,5.5
2018-06-13T17:10:01.101Z,4.6
2018-06-13T17:15:01.031Z,5.3
2018-06-13T17:20:01.150Z,5.4
2018-06-13T17:30:01.031Z,5.4
2018-06-13T17:35:01.001Z,5.5
2018-06-13T17:40:01.012Z,5.1
2018-06-13T17:45:01.080Z,5.0
2018-06-13T17:50:01.523Z,4.9
2018-06-13T17:55:01.266Z,5.0
2018-06-13T18:00:01.144Z,5.4
2018-06-13T18:05:01.329Z,5.6
2018-06-13T18:10:01.106Z,5.5
2018-06-13T18:15:01.344Z,5.6
2018-06-13T18:20:01.088Z,5.4
2018-06-13T18:25:01.021Z,5.0
2018-06-13T18:30:01.222Z,4.8
2018-06-13T18:45:01.220Z,4.9
2018-06-13T18:50:01.093Z,4.7
2018-06-13T18:55:01.038Z,4.9
2018-06-13T19:00:01.236Z,4.9
2018-06-13T19:05:01.050Z,4.5
2018-06-13T19:10:01.129Z,4.4
2018-06-13T19:15:06.045Z,4.4
2018-06-13T19:30:01.142Z,4.9
2018-06-13T19:40:01.691Z,5.4
2018-06-13T19:45:01.052Z,5.8
2018-06-13T19:50:01.117Z,6.4
2018-06-13T20:00:01.186Z,6.6
2018-06-13T20:05:01.062Z,6.4
2018-06-13T20:15:01.190Z,6.1
2018-06-13T20:20:01.132Z,6.5
2018-06-13T20:25:01.170Z,6.3
2018-06-13T20:30:01.211Z,6.1
2018-06-13T20:35:01.083Z,5.7
2018-06-13T20:40:01.226Z,5.4
2018-06-13T20:45:01.167Z,5.2
2018-06-13T20:50:01.181Z,5.0
2018-06-13T20:55:01.079Z,5.1
2018-06-13T21:00:01.187Z,5.2
2018-06-13T21:10:06.244Z,5.7
2018-06-13T21:15:01.082Z,6.2
2018-06-13T21:25:01.195Z,6.6
2018-06-13T21:30:01.154Z,6.8
2018-06-13T21:35:01.062Z,6.5
2018-06-13T21:40:01.234Z,6.7
2018-06-13T21:45:01.125Z,7.0
2018-06-13T21:55:06.260Z,7.5
2018-06-13T22:00:01.230Z,7.5
2018-06-13T22:05:01.128Z,7.2
2018-06-13T22:10:01.328Z,7.5
2018-06-13T22:15:01.135Z,7.2
2018-06-13T22:20:01.233Z,7.0
2018-06-13T22:25:01.170Z,7.1
2018-06-13T22:30:01.271Z,7.6
2018-06-13T22:35:01.139Z,7.3
2018-06-13T22:40:06.252Z,7.7
2018-06-13T22:45:01.478Z,7.2
2018-06-13T22:50:02.327Z,7.1
2018-06-13T23:00:06.196Z,6.9
2018-06-13T23:05:01.169Z,7.2
2018-06-13T23:10:01.952Z,7.8
2018-06-13T23:15:01.134Z,8.2
2018-06-13T23:20:01.584Z,8.4
2018-06-13T23:25:01.195Z,9.3
2018-06-13T23:30:01.162Z,9.3
2018-06-13T23:35:01.241Z,9.7
2018-06-13T23:45:01.235Z,9.9
2018-06-13T23:50:01.242Z,9.5
2018-06-13T23:55:01.183Z,10.1
